sensor_id;sensor_type;location;lat;lon;timestamp;pressure;altitude;pressure_sealevel;temperature;humidity
49216;BME280;45943;53.148;8.204;2022-08-19T00:01:31;101357.06;;;25.11;100.00
49216;BME280;45943;53.148;8.204;2022-08-19T00:03:59;101349.44;;;25.06;100.00
49216;BME280;45943;53.148;8.204;2022-08-19T00:06:28;101351.81;;;25.29;100.00
49216;BME280;45943;53.148;8.204;2022-08-19T00:08:54;101353.34;;;25.52;100.00
49216;BME280;45943;53.148;8.204;2022-08-19T00:11:21;101354.81;;;25.54;100.00
49216;BME280;45943;53.148;8.204;2022-08-19T00:13:47;101357.19;;;25.70;100.00
49216;BME280;45943;53.148;8.204;2022-08-19T00:16:16;101354.84;;;25.61;100.00
49216;BME280;45943;53.148;8.204;2022-08-19T00:18:45;101352.94;;;25.61;100.00
49216;BME280;45943;53.148;8.204;2022-08-19T00:21:11;101348.91;;;25.57;100.00
49216;BME280;45943;53.148;8.204;2022-08-19T00:23:37;101344.44;;;25.56;100.00
49216;BME280;45943;53.148;8.204;2022-08-19T00:26:04;101337.94;;;25.57;100.00
49216;BME280;45943;53.148;8.204;2022-08-19T00:28:31;101345.88;;;25.26;100.00
49216;BME280;45943;53.148;8.204;2022-08-19T00:30:59;101338.28;;;25.21;100.00
49216;BME280;45943;53.148;8.204;2022-08-19T00:33:25;101344.03;;;25.39;100.00
49216;BME280;45943;53.148;8.204;2022-08-19T00:35:51;101341.09;;;25.48;100.00
49216;BME280;45943;53.148;8.204;2022-08-19T00:38:17;101347.63;;;25.46;100.00
49216;BME280;45943;53.148;8.204;2022-08-19T00:40:43;101347.00;;;25.38;100.00
49216;BME280;45943;53.148;8.204;2022-08-19T00:43:12;101351.59;;;25.24;100.00
49216;BME280;45943;53.148;8.204;2022-08-19T00:45:43;101350.13;;;25.22;100.00
49216;BME280;45943;53.148;8.204;2022-08-19T00:48:10;101343.66;;;24.88;100.00
49216;BME280;45943;53.148;8.204;2022-08-19T00:50:37;101349.44;;;25.06;100.00
49216;BME280;45943;53.148;8.204;2022-08-19T00:53:09;101345.88;;;25.26;100.00
49216;BME280;45943;53.148;8.204;2022-08-19T00:55:37;101344.22;;;25.44;100.00
49216;BME280;45943;53.148;8.204;2022-08-19T00:58:06;101353.31;;;25.45;100.00
49216;BME280;45943;53.148;8.204;2022-08-19T01:00:36;101342.97;;;25.40;100.00
49216;BME280;45943;53.148;8.204;2022-08-19T01:03:07;101342.53;;;25.43;100.00
49216;BME280;45943;53.148;8.204;2022-08-19T01:05:35;101352.47;;;25.44;100.00
49216;BME280;45943;53.148;8.204;2022-08-19T01:08:03;101344.38;;;25.10;100.00
49216;BME280;45943;53.148;8.204;2022-08-19T01:10:32;101345.13;;;24.97;100.00
49216;BME280;45943;53.148;8.204;2022-08-19T01:13:02;101351.91;;;24.95;100.00
49216;BME280;45943;53.148;8.204;2022-08-19T01:15:31;101353.97;;;24.86;100.00
49216;BME280;45943;53.148;8.204;2022-08-19T01:18:00;101354.50;;;25.03;100.00
49216;BME280;45943;53.148;8.204;2022-08-19T01:20:29;101349.25;;;25.14;100.00
49216;BME280;45943;53.148;8.204;2022-08-19T01:22:56;101342.13;;;24.79;100.00
49216;BME280;45943;53.148;8.204;2022-08-19T01:25:35;101336.59;;;25.20;100.00
49216;BME280;45943;53.148;8.204;2022-08-19T01:28:07;101337.06;;;25.43;100.00
49216;BME280;45943;53.148;8.204;2022-08-19T01:30:34;101339.13;;;25.22;100.00
49216;BME280;45943;53.148;8.204;2022-08-19T01:33:01;101335.31;;;25.16;100.00
49216;BME280;45943;53.148;8.204;2022-08-19T01:35:28;101336.38;;;25.08;100.00
49216;BME280;45943;53.148;8.204;2022-08-19T01:38:00;101333.53;;;24.95;100.00
49216;BME280;45943;53.148;8.204;2022-08-19T01:40:31;101325.84;;;24.77;100.00
49216;BME280;45943;53.148;8.204;2022-08-19T01:42:58;101319.72;;;24.75;100.00
49216;BME280;45943;53.148;8.204;2022-08-19T01:45:26;101321.16;;;24.65;100.00
49216;BME280;45943;53.148;8.204;2022-08-19T01:47:54;101318.38;;;24.51;100.00
49216;BME280;45943;53.148;8.204;2022-08-19T01:50:21;101310.56;;;24.55;100.00
49216;BME280;45943;53.148;8.204;2022-08-19T01:52:47;101306.97;;;24.54;100.00
49216;BME280;45943;53.148;8.204;2022-08-19T01:55:14;101315.38;;;24.46;100.00
49216;BME280;45943;53.148;8.204;2022-08-19T01:57:44;101308.88;;;24.54;100.00
49216;BME280;45943;53.148;8.204;2022-08-19T02:00:15;101301.06;;;24.51;100.00
49216;BME280;45943;53.148;8.204;2022-08-19T02:02:43;101301.16;;;24.29;100.00
49216;BME280;45943;53.148;8.204;2022-08-19T02:05:10;101293.94;;;24.22;100.00
49216;BME280;45943;53.148;8.204;2022-08-19T02:07:36;101286.44;;;24.02;100.00
49216;BME280;45943;53.148;8.204;2022-08-19T02:10:08;101285.97;;;23.50;100.00
49216;BME280;45943;53.148;8.204;2022-08-19T02:12:37;101278.97;;;23.40;100.00
49216;BME280;45943;53.148;8.204;2022-08-19T02:15:04;101275.75;;;23.37;100.00
49216;BME280;45943;53.148;8.204;2022-08-19T02:17:30;101273.63;;;23.82;100.00
49216;BME280;45943;53.148;8.204;2022-08-19T02:19:56;101280.16;;;24.43;100.00
49216;BME280;45943;53.148;8.204;2022-08-19T02:22:23;101272.50;;;24.32;100.00
49216;BME280;45943;53.148;8.204;2022-08-19T02:24:54;101285.06;;;24.20;100.00
49216;BME280;45943;53.148;8.204;2022-08-19T02:27:21;101287.81;;;24.20;100.00
49216;BME280;45943;53.148;8.204;2022-08-19T02:29:48;101283.19;;;23.92;100.00
49216;BME280;45943;53.148;8.204;2022-08-19T02:32:16;101284.88;;;23.93;100.00
49216;BME280;45943;53.148;8.204;2022-08-19T02:34:45;101274.25;;;24.12;100.00
49216;BME280;45943;53.148;8.204;2022-08-19T02:37:12;101287.69;;;24.07;100.00
49216;BME280;45943;53.148;8.204;2022-08-19T02:40:08;101281.66;;;24.18;100.00
49216;BME280;45943;53.148;8.204;2022-08-19T02:42:34;101282.03;;;24.43;100.00
49216;BME280;45943;53.148;8.204;2022-08-19T02:45:00;101290.72;;;24.53;100.00
49216;BME280;45943;53.148;8.204;2022-08-19T02:47:26;101284.63;;;24.51;100.00
49216;BME280;45943;53.148;8.204;2022-08-19T02:49:52;101290.19;;;24.29;100.00
49216;BME280;45943;53.148;8.204;2022-08-19T02:52:18;101289.59;;;23.78;100.00
49216;BME280;45943;53.148;8.204;2022-08-19T02:54:44;101297.31;;;24.24;100.00
49216;BME280;45943;53.148;8.204;2022-08-19T02:57:10;101290.66;;;24.05;100.00
49216;BME280;45943;53.148;8.204;2022-08-19T02:59:36;101289.75;;;23.98;100.00
49216;BME280;45943;53.148;8.204;2022-08-19T03:02:02;101291.34;;;23.86;100.00
49216;BME280;45943;53.148;8.204;2022-08-19T03:04:28;101285.97;;;23.99;100.00
49216;BME280;45943;53.148;8.204;2022-08-19T03:06:55;101274.00;;;23.51;100.00
49216;BME280;45943;53.148;8.204;2022-08-19T03:09:21;101273.56;;;24.03;100.00
49216;BME280;45943;53.148;8.204;2022-08-19T03:11:47;101282.63;;;24.03;100.00
49216;BME280;45943;53.148;8.204;2022-08-19T03:14:13;101292.47;;;24.26;100.00
49216;BME280;45943;53.148;8.204;2022-08-19T03:16:44;101292.06;;;24.29;100.00
49216;BME280;45943;53.148;8.204;2022-08-19T03:19:12;101291.22;;;23.94;100.00
49216;BME280;45943;53.148;8.204;2022-08-19T03:21:38;101291.22;;;23.94;100.00
49216;BME280;45943;53.148;8.204;2022-08-19T03:24:06;101300.69;;;24.26;100.00
49216;BME280;45943;53.148;8.204;2022-08-19T03:26:34;101290.31;;;23.87;100.00
49216;BME280;45943;53.148;8.204;2022-08-19T03:29:03;101283.97;;;23.80;100.00
49216;BME280;45943;53.148;8.204;2022-08-19T03:31:30;101291.06;;;22.74;100.00
49216;BME280;45943;53.148;8.204;2022-08-19T03:33:56;101296.25;;;23.62;100.00
49216;BME280;45943;53.148;8.204;2022-08-19T03:36:24;101292.31;;;23.99;100.00
49216;BME280;45943;53.148;8.204;2022-08-19T03:38:52;101298.72;;;24.13;100.00
49216;BME280;45943;53.148;8.204;2022-08-19T03:41:22;101297.63;;;24.08;100.00
49216;BME280;45943;53.148;8.204;2022-08-19T03:43:51;101296.97;;;23.78;100.00
49216;BME280;45943;53.148;8.204;2022-08-19T03:46:22;101289.31;;;23.66;100.00
49216;BME280;45943;53.148;8.204;2022-08-19T03:48:54;101287.47;;;23.73;100.00
49216;BME280;45943;53.148;8.204;2022-08-19T03:51:26;101288.41;;;23.38;100.00
49216;BME280;45943;53.148;8.204;2022-08-19T03:53:57;101285.19;;;23.56;100.00
49216;BME280;45943;53.148;8.204;2022-08-19T03:56:26;101278.59;;;23.22;100.00
49216;BME280;45943;53.148;8.204;2022-08-19T03:58:53;101289.19;;;23.74;100.00
49216;BME280;45943;53.148;8.204;2022-08-19T04:01:21;101284.88;;;23.65;100.00
49216;BME280;45943;53.148;8.204;2022-08-19T04:03:49;101293.88;;;23.38;100.00
49216;BME280;45943;53.148;8.204;2022-08-19T04:08:47;101296.47;;;23.46;100.00
49216;BME280;45943;53.148;8.204;2022-08-19T04:11:17;101293.41;;;23.77;100.00
49216;BME280;45943;53.148;8.204;2022-08-19T04:13:49;101291.13;;;23.81;100.00
49216;BME280;45943;53.148;8.204;2022-08-19T04:16:19;101287.53;;;23.80;100.00
49216;BME280;45943;53.148;8.204;2022-08-19T04:18:47;101295.78;;;23.87;100.00
49216;BME280;45943;53.148;8.204;2022-08-19T04:21:18;101295.78;;;23.87;100.00
49216;BME280;45943;53.148;8.204;2022-08-19T04:23:46;101301.81;;;23.75;100.00
49216;BME280;45943;53.148;8.204;2022-08-19T04:26:13;101297.78;;;23.99;100.00
49216;BME280;45943;53.148;8.204;2022-08-19T04:28:44;101296.69;;;23.94;100.00
49216;BME280;45943;53.148;8.204;2022-08-19T04:31:32;101299.84;;;23.91;100.00
49216;BME280;45943;53.148;8.204;2022-08-19T04:33:58;101299.53;;;23.79;100.00
49216;BME280;45943;53.148;8.204;2022-08-19T04:36:27;101307.03;;;23.28;100.00
49216;BME280;45943;53.148;8.204;2022-08-19T04:38:56;101305.69;;;23.38;100.00
49216;BME280;45943;53.148;8.204;2022-08-19T04:41:24;101319.97;;;23.12;100.00
49216;BME280;45943;53.148;8.204;2022-08-19T04:44:09;101316.06;;;22.85;100.00
49216;BME280;45943;53.148;8.204;2022-08-19T04:46:35;101310.19;;;23.67;100.00
49216;BME280;45943;53.148;8.204;2022-08-19T04:49:02;101307.16;;;23.84;100.00
49216;BME280;45943;53.148;8.204;2022-08-19T04:51:31;101304.66;;;23.89;100.00
49216;BME280;45943;53.148;8.204;2022-08-19T04:53:59;101301.91;;;23.89;100.00
49216;BME280;45943;53.148;8.204;2022-08-19T04:56:27;101307.22;;;23.90;100.00
49216;BME280;45943;53.148;8.204;2022-08-19T04:58:54;101313.69;;;23.83;100.00
49216;BME280;45943;53.148;8.204;2022-08-19T05:01:22;101323.16;;;23.59;100.00
49216;BME280;45943;53.148;8.204;2022-08-19T05:03:50;101329.41;;;23.74;100.00
49216;BME280;45943;53.148;8.204;2022-08-19T05:06:19;101329.06;;;23.84;100.00
49216;BME280;45943;53.148;8.204;2022-08-19T05:08:46;101330.19;;;23.89;100.00
49216;BME280;45943;53.148;8.204;2022-08-19T05:11:14;101341.09;;;23.83;100.00
49216;BME280;45943;53.148;8.204;2022-08-19T05:13:43;101345.53;;;23.62;100.00
49216;BME280;45943;53.148;8.204;2022-08-19T05:16:11;101334.47;;;23.70;100.00
49216;BME280;45943;53.148;8.204;2022-08-19T05:18:38;101334.06;;;23.31;100.00
49216;BME280;45943;53.148;8.204;2022-08-19T05:21:23;101326.47;;;23.11;100.00
49216;BME280;45943;53.148;8.204;2022-08-19T05:24:08;101330.06;;;24.04;100.00
49216;BME280;45943;53.148;8.204;2022-08-19T05:26:38;101332.38;;;24.00;100.00
49216;BME280;45943;53.148;8.204;2022-08-19T05:29:07;101342.53;;;23.00;100.00
49216;BME280;45943;53.148;8.204;2022-08-19T05:31:34;101333.56;;;24.54;100.00
49216;BME280;45943;53.148;8.204;2022-08-19T05:34:01;101325.78;;;23.67;100.00
49216;BME280;45943;53.148;8.204;2022-08-19T05:36:32;101326.28;;;24.33;100.00
49216;BME280;45943;53.148;8.204;2022-08-19T05:39:01;101325.97;;;24.49;100.00
49216;BME280;45943;53.148;8.204;2022-08-19T05:41:28;101320.28;;;23.67;100.00
49216;BME280;45943;53.148;8.204;2022-08-19T05:43:56;101318.81;;;23.92;100.00
49216;BME280;45943;53.148;8.204;2022-08-19T05:46:23;101316.38;;;23.76;100.00
49216;BME280;45943;53.148;8.204;2022-08-19T05:48:49;101313.69;;;24.17;100.00
49216;BME280;45943;53.148;8.204;2022-08-19T05:51:15;101304.19;;;24.48;100.00
49216;BME280;45943;53.148;8.204;2022-08-19T05:53:42;101311.25;;;25.25;100.00
49216;BME280;45943;53.148;8.204;2022-08-19T05:56:14;101304.31;;;25.55;100.00
49216;BME280;45943;53.148;8.204;2022-08-19T05:58:42;101301.97;;;26.18;93.85
49216;BME280;45943;53.148;8.204;2022-08-19T06:01:15;101303.25;;;25.50;100.00
49216;BME280;45943;53.148;8.204;2022-08-19T06:03:43;101298.38;;;26.18;91.41
49216;BME280;45943;53.148;8.204;2022-08-19T06:06:11;101301.72;;;26.46;89.61
49216;BME280;45943;53.148;8.204;2022-08-19T06:08:38;101300.28;;;26.17;94.22
49216;BME280;45943;53.148;8.204;2022-08-19T06:13:49;101299.25;;;25.85;97.89
49216;BME280;45943;53.148;8.204;2022-08-19T06:16:18;101301.56;;;25.55;100.00
49216;BME280;45943;53.148;8.204;2022-08-19T06:18:48;101295.84;;;26.10;100.00
49216;BME280;45943;53.148;8.204;2022-08-19T06:21:20;101296.63;;;26.37;95.13
49216;BME280;45943;53.148;8.204;2022-08-19T06:23:48;101296.91;;;26.80;85.96
49216;BME280;45943;53.148;8.204;2022-08-19T06:26:17;101302.84;;;26.06;95.53
49216;BME280;45943;53.148;8.204;2022-08-19T06:28:44;101315.13;;;25.83;98.23
49216;BME280;45943;53.148;8.204;2022-08-19T06:31:17;101305.31;;;26.47;90.55
49216;BME280;45943;53.148;8.204;2022-08-19T06:33:46;101315.19;;;26.54;95.68
49216;BME280;45943;53.148;8.204;2022-08-19T06:36:19;101314.88;;;26.82;85.02
49216;BME280;45943;53.148;8.204;2022-08-19T06:38:47;101311.34;;;26.69;86.99
49216;BME280;45943;53.148;8.204;2022-08-19T06:41:13;101312.06;;;27.02;85.00
49216;BME280;45943;53.148;8.204;2022-08-19T06:43:39;101310.38;;;26.95;83.18
49216;BME280;45943;53.148;8.204;2022-08-19T06:46:09;101316.78;;;27.27;80.47
49216;BME280;45943;53.148;8.204;2022-08-19T06:48:39;101313.38;;;27.56;78.25
49216;BME280;45943;53.148;8.204;2022-08-19T06:51:06;101326.25;;;27.06;84.37
49216;BME280;45943;53.148;8.204;2022-08-19T06:53:32;101317.69;;;26.69;87.78
49216;BME280;45943;53.148;8.204;2022-08-19T06:55:59;101326.50;;;25.60;100.00
49216;BME280;45943;53.148;8.204;2022-08-19T06:58:28;101327.78;;;26.88;89.40
49216;BME280;45943;53.148;8.204;2022-08-19T07:01:07;101318.94;;;27.50;80.85
49216;BME280;45943;53.148;8.204;2022-08-19T07:03:34;101324.56;;;27.93;74.41
49216;BME280;45943;53.148;8.204;2022-08-19T07:06:02;101321.84;;;27.30;80.57
49216;BME280;45943;53.148;8.204;2022-08-19T07:08:30;101323.06;;;26.44;90.61
49216;BME280;45943;53.148;8.204;2022-08-19T07:10:56;101329.94;;;26.73;85.33
49216;BME280;45943;53.148;8.204;2022-08-19T07:13:22;101325.28;;;27.50;78.97
49216;BME280;45943;53.148;8.204;2022-08-19T07:15:49;101330.38;;;27.53;80.50
49216;BME280;45943;53.148;8.204;2022-08-19T07:18:19;101339.84;;;27.32;80.46
49216;BME280;45943;53.148;8.204;2022-08-19T07:20:46;101336.25;;;25.76;91.38
49216;BME280;45943;53.148;8.204;2022-08-19T07:23:13;101338.25;;;27.11;84.44
49216;BME280;45943;53.148;8.204;2022-08-19T07:25:39;101332.72;;;28.24;75.25
49216;BME280;45943;53.148;8.204;2022-08-19T07:28:05;101337.78;;;28.27;70.97
49216;BME280;45943;53.148;8.204;2022-08-19T07:30:35;101338.31;;;28.18;72.82
49216;BME280;45943;53.148;8.204;2022-08-19T07:33:02;101339.81;;;28.39;72.12
49216;BME280;45943;53.148;8.204;2022-08-19T07:35:28;101348.81;;;27.53;75.26
49216;BME280;45943;53.148;8.204;2022-08-19T07:37:57;101348.09;;;28.57;71.30
49216;BME280;45943;53.148;8.204;2022-08-19T07:40:23;101353.03;;;28.73;68.82
49216;BME280;45943;53.148;8.204;2022-08-19T07:42:49;101355.47;;;28.63;68.45
49216;BME280;45943;53.148;8.204;2022-08-19T07:45:15;101360.66;;;29.08;65.57
49216;BME280;45943;53.148;8.204;2022-08-19T07:47:41;101354.56;;;27.83;69.64
49216;BME280;45943;53.148;8.204;2022-08-19T07:50:09;101368.88;;;27.91;71.13
49216;BME280;45943;53.148;8.204;2022-08-19T07:52:37;101368.09;;;27.21;77.58
49216;BME280;45943;53.148;8.204;2022-08-19T07:55:05;101368.00;;;27.97;69.88
49216;BME280;45943;53.148;8.204;2022-08-19T07:57:33;101374.63;;;28.76;67.83
49216;BME280;45943;53.148;8.204;2022-08-19T07:59:59;101382.41;;;28.24;67.00
49216;BME280;45943;53.148;8.204;2022-08-19T08:02:25;101380.31;;;27.32;70.61
49216;BME280;45943;53.148;8.204;2022-08-19T08:04:51;101382.44;;;27.61;72.22
49216;BME280;45943;53.148;8.204;2022-08-19T08:07:36;101382.22;;;28.44;64.99
49216;BME280;45943;53.148;8.204;2022-08-19T08:10:20;101380.66;;;28.30;67.14
49216;BME280;45943;53.148;8.204;2022-08-19T08:12:47;101380.63;;;28.55;65.53
49216;BME280;45943;53.148;8.204;2022-08-19T08:15:14;101379.06;;;29.14;63.59
49216;BME280;45943;53.148;8.204;2022-08-19T08:17:42;101377.22;;;29.08;63.20
49216;BME280;45943;53.148;8.204;2022-08-19T08:20:09;101378.00;;;28.78;62.63
49216;BME280;45943;53.148;8.204;2022-08-19T08:22:36;101392.38;;;29.35;57.50
49216;BME280;45943;53.148;8.204;2022-08-19T08:25:21;101391.19;;;27.58;69.52
49216;BME280;45943;53.148;8.204;2022-08-19T08:27:49;101399.00;;;28.79;65.75
49216;BME280;45943;53.148;8.204;2022-08-19T08:30:20;101385.53;;;28.53;63.36
49216;BME280;45943;53.148;8.204;2022-08-19T08:32:47;101404.34;;;29.29;59.95
49216;BME280;45943;53.148;8.204;2022-08-19T08:35:15;101405.34;;;29.35;61.35
49216;BME280;45943;53.148;8.204;2022-08-19T08:37:42;101411.25;;;28.28;67.28
49216;BME280;45943;53.148;8.204;2022-08-19T08:40:48;101398.50;;;29.37;61.15
49216;BME280;45943;53.148;8.204;2022-08-19T08:49:06;101410.50;;;30.03;56.35
49216;BME280;45943;53.148;8.204;2022-08-19T08:54:33;101402.78;;;30.87;54.52
49216;BME280;45943;53.148;8.204;2022-08-19T08:57:04;101406.50;;;31.04;53.70
49216;BME280;45943;53.148;8.204;2022-08-19T08:59:38;101407.59;;;31.03;53.15
49216;BME280;45943;53.148;8.204;2022-08-19T09:02:07;101404.56;;;31.05;52.21
49216;BME280;45943;53.148;8.204;2022-08-19T09:04:34;101409.06;;;30.94;51.12
49216;BME280;45943;53.148;8.204;2022-08-19T09:07:18;101403.91;;;31.15;52.87
49216;BME280;45943;53.148;8.204;2022-08-19T09:09:52;101415.25;;;31.25;51.76
49216;BME280;45943;53.148;8.204;2022-08-19T09:12:41;101407.03;;;30.08;52.93
49216;BME280;45943;53.148;8.204;2022-08-19T09:15:22;101404.84;;;30.92;51.31
49216;BME280;45943;53.148;8.204;2022-08-19T09:17:54;101404.16;;;30.38;49.98
49216;BME280;45943;53.148;8.204;2022-08-19T09:20:25;101401.97;;;29.33;56.07
49216;BME280;45943;53.148;8.204;2022-08-19T09:22:51;101391.28;;;31.07;52.89
49216;BME280;45943;53.148;8.204;2022-08-19T09:25:19;101385.59;;;31.54;49.60
49216;BME280;45943;53.148;8.204;2022-08-19T09:27:50;101389.56;;;31.58;48.98
49216;BME280;45943;53.148;8.204;2022-08-19T09:30:20;101387.66;;;32.25;47.71
49216;BME280;45943;53.148;8.204;2022-08-19T09:32:49;101397.56;;;32.55;47.39
49216;BME280;45943;53.148;8.204;2022-08-19T09:35:18;101398.03;;;32.69;46.32
49216;BME280;45943;53.148;8.204;2022-08-19T09:37:47;101390.78;;;32.85;47.73
49216;BME280;45943;53.148;8.204;2022-08-19T09:40:15;101386.38;;;32.72;45.95
49216;BME280;45943;53.148;8.204;2022-08-19T09:42:41;101390.81;;;32.51;46.24
49216;BME280;45943;53.148;8.204;2022-08-19T09:45:13;101390.75;;;32.29;46.77
49216;BME280;45943;53.148;8.204;2022-08-19T09:47:40;101392.09;;;32.43;45.85
49216;BME280;45943;53.148;8.204;2022-08-19T09:50:06;101389.72;;;32.52;45.70
49216;BME280;45943;53.148;8.204;2022-08-19T09:52:34;101390.72;;;32.63;43.79
49216;BME280;45943;53.148;8.204;2022-08-19T09:55:03;101381.97;;;32.54;44.94
49216;BME280;45943;53.148;8.204;2022-08-19T09:57:33;101392.22;;;32.70;44.68
49216;BME280;45943;53.148;8.204;2022-08-19T09:59:59;101386.34;;;32.67;45.01
49216;BME280;45943;53.148;8.204;2022-08-19T10:02:25;101385.59;;;32.54;43.93
49216;BME280;45943;53.148;8.204;2022-08-19T10:04:51;101383.16;;;32.80;44.54
49216;BME280;45943;53.148;8.204;2022-08-19T10:07:36;101387.22;;;32.72;44.50
49216;BME280;45943;53.148;8.204;2022-08-19T10:10:03;101389.50;;;32.75;44.92
49216;BME280;45943;53.148;8.204;2022-08-19T10:12:32;101382.00;;;32.76;42.81
49216;BME280;45943;53.148;8.204;2022-08-19T10:14:59;101386.91;;;32.86;42.98
49216;BME280;45943;53.148;8.204;2022-08-19T10:17:25;101384.44;;;32.50;41.53
49216;BME280;45943;53.148;8.204;2022-08-19T10:19:52;101382.50;;;31.67;43.22
49216;BME280;45943;53.148;8.204;2022-08-19T10:22:18;101374.13;;;31.95;42.89
49216;BME280;45943;53.148;8.204;2022-08-19T10:24:48;101370.47;;;32.29;42.41
49216;BME280;45943;53.148;8.204;2022-08-19T10:27:15;101372.03;;;31.86;42.34
49216;BME280;45943;53.148;8.204;2022-08-19T10:29:41;101377.63;;;30.89;42.73
49216;BME280;45943;53.148;8.204;2022-08-19T10:32:08;101381.81;;;31.03;43.01
49216;BME280;45943;53.148;8.204;2022-08-19T10:34:36;101375.66;;;32.80;42.34
49216;BME280;45943;53.148;8.204;2022-08-19T10:37:04;101371.59;;;32.28;40.55
49216;BME280;45943;53.148;8.204;2022-08-19T10:39:32;101381.94;;;31.82;42.03
49216;BME280;45943;53.148;8.204;2022-08-19T10:41:59;101370.06;;;31.24;42.67
49216;BME280;45943;53.148;8.204;2022-08-19T10:44:31;101367.50;;;32.91;40.89
49216;BME280;45943;53.148;8.204;2022-08-19T10:46:57;101369.81;;;33.80;38.18
49216;BME280;45943;53.148;8.204;2022-08-19T10:49:24;101355.34;;;35.15;36.60
49216;BME280;45943;53.148;8.204;2022-08-19T10:51:50;101356.66;;;36.85;35.17
49216;BME280;45943;53.148;8.204;2022-08-19T10:54:34;101361.53;;;38.21;33.74
49216;BME280;45943;53.148;8.204;2022-08-19T10:57:19;101351.94;;;38.56;31.83
49216;BME280;45943;53.148;8.204;2022-08-19T10:59:45;101354.06;;;38.88;32.42
49216;BME280;45943;53.148;8.204;2022-08-19T11:02:12;101351.06;;;36.75;33.06
49216;BME280;45943;53.148;8.204;2022-08-19T11:04:39;101355.72;;;35.54;34.39
49216;BME280;45943;53.148;8.204;2022-08-19T11:07:06;101355.97;;;36.08;33.22
49216;BME280;45943;53.148;8.204;2022-08-19T11:09:42;101354.44;;;36.72;33.69
49216;BME280;45943;53.148;8.204;2022-08-19T11:12:09;101360.38;;;37.20;33.05
49216;BME280;45943;53.148;8.204;2022-08-19T11:14:38;101361.72;;;37.72;33.35
49216;BME280;45943;53.148;8.204;2022-08-19T11:17:04;101354.59;;;39.14;31.03
49216;BME280;45943;53.148;8.204;2022-08-19T11:19:30;101356.47;;;40.22;31.25
49216;BME280;45943;53.148;8.204;2022-08-19T11:21:57;101362.94;;;38.77;30.59
49216;BME280;45943;53.148;8.204;2022-08-19T11:24:23;101359.97;;;37.42;31.35
49216;BME280;45943;53.148;8.204;2022-08-19T11:26:51;101361.66;;;37.43;31.08
49216;BME280;45943;53.148;8.204;2022-08-19T11:29:22;101351.47;;;36.28;32.38
49216;BME280;45943;53.148;8.204;2022-08-19T11:31:51;101351.41;;;37.23;33.29
49216;BME280;45943;53.148;8.204;2022-08-19T11:34:19;101344.31;;;38.38;29.85
49216;BME280;45943;53.148;8.204;2022-08-19T11:36:47;101347.59;;;35.78;32.78
49216;BME280;45943;53.148;8.204;2022-08-19T11:39:16;101343.25;;;36.72;34.33
49216;BME280;45943;53.148;8.204;2022-08-19T11:41:44;101343.34;;;35.29;34.75
49216;BME280;45943;53.148;8.204;2022-08-19T11:44:10;101346.19;;;36.26;33.43
49216;BME280;45943;53.148;8.204;2022-08-19T11:46:39;101340.81;;;36.55;33.73
49216;BME280;45943;53.148;8.204;2022-08-19T11:49:07;101353.88;;;38.03;31.42
49216;BME280;45943;53.148;8.204;2022-08-19T11:51:34;101345.25;;;38.52;31.70
49216;BME280;45943;53.148;8.204;2022-08-19T11:54:01;101347.72;;;37.32;31.64
49216;BME280;45943;53.148;8.204;2022-08-19T11:56:29;101360.75;;;36.13;33.49
49216;BME280;45943;53.148;8.204;2022-08-19T11:58:55;101353.53;;;34.83;34.79
49216;BME280;45943;53.148;8.204;2022-08-19T12:01:25;101346.66;;;36.64;33.46
49216;BME280;45943;53.148;8.204;2022-08-19T12:03:52;101356.53;;;35.85;34.19
49216;BME280;45943;53.148;8.204;2022-08-19T12:06:21;101349.41;;;37.33;31.98
49216;BME280;45943;53.148;8.204;2022-08-19T12:08:55;101353.75;;;38.71;31.56
49216;BME280;45943;53.148;8.204;2022-08-19T12:11:22;101352.59;;;38.72;31.39
49216;BME280;45943;53.148;8.204;2022-08-19T12:13:49;101344.72;;;39.17;29.29
49216;BME280;45943;53.148;8.204;2022-08-19T12:16:19;101345.91;;;39.48;28.81
49216;BME280;45943;53.148;8.204;2022-08-19T12:18:50;101346.34;;;38.56;29.34
49216;BME280;45943;53.148;8.204;2022-08-19T12:21:19;101340.28;;;38.92;29.86
49216;BME280;45943;53.148;8.204;2022-08-19T12:23:47;101344.53;;;39.08;30.15
49216;BME280;45943;53.148;8.204;2022-08-19T12:26:15;101339.53;;;41.54;27.41
49216;BME280;45943;53.148;8.204;2022-08-19T12:28:42;101336.91;;;40.17;26.53
49216;BME280;45943;53.148;8.204;2022-08-19T12:31:09;101334.84;;;39.57;27.61
49216;BME280;45943;53.148;8.204;2022-08-19T12:33:38;101330.53;;;38.41;28.86
49216;BME280;45943;53.148;8.204;2022-08-19T12:36:05;101337.22;;;37.53;29.25
49216;BME280;45943;53.148;8.204;2022-08-19T12:38:33;101324.97;;;37.44;30.17
49216;BME280;45943;53.148;8.204;2022-08-19T12:41:02;101331.91;;;38.68;27.80
49216;BME280;45943;53.148;8.204;2022-08-19T12:43:33;101320.34;;;42.09;25.90
49216;BME280;45943;53.148;8.204;2022-08-19T12:46:00;101323.63;;;42.03;24.81
49216;BME280;45943;53.148;8.204;2022-08-19T12:48:28;101318.69;;;40.69;26.21
49216;BME280;45943;53.148;8.204;2022-08-19T12:50:54;101325.16;;;43.23;24.57
49216;BME280;45943;53.148;8.204;2022-08-19T12:53:20;101323.47;;;45.18;23.62
49216;BME280;45943;53.148;8.204;2022-08-19T12:55:46;101321.53;;;41.86;24.93
49216;BME280;45943;53.148;8.204;2022-08-19T12:58:12;101322.72;;;44.50;23.66
49216;BME280;45943;53.148;8.204;2022-08-19T13:00:38;101323.31;;;44.94;23.52
49216;BME280;45943;53.148;8.204;2022-08-19T13:03:05;101325.88;;;42.15;25.62
49216;BME280;45943;53.148;8.204;2022-08-19T13:05:31;101315.53;;;40.84;26.91
49216;BME280;45943;53.148;8.204;2022-08-19T13:07:59;101312.78;;;39.13;28.29